Time;durP1;ratioP1;P1;durP2;ratioP2;P2;SDS_P1;SDS_P2;PMS_P1;PMS_P2;Temp;Humidity;BMP_temperature;BMP_pressure;BME280_temperature;BME280_humidity;BME280_pressure;Samples;Min_cycle;Max_cycle;Signal;HPM_P1;HPM_P2
2021/12/14 00:01:34;;;;;;;13.60;4.75;;;;;;;8.10;100.00;101778.75;5276449;28;20032;-78
2021/12/14 00:04:18;;;;;;;8.02;4.82;;;;;;;8.12;100.00;101770.91;5280436;28;20024;-79
2021/12/14 00:06:49;;;;;;;7.95;4.63;;;;;;;8.08;100.00;101780.47;5275968;28;20071;-77
2021/12/14 00:09:30;;;;;;;7.30;4.57;;;;;;;8.03;100.00;101771.84;5287784;28;20030;-78
2021/12/14 00:15:06;;;;;;;7.80;4.97;;;;;;;7.97;100.00;101777.09;5297035;22;20042;-80
2021/12/14 00:17:41;;;;;;;8.02;4.35;;;;;;;7.92;100.00;101776.28;5225187;28;20694;-80
2021/12/14 00:20:21;;;;;;;8.25;4.75;;;;;;;7.98;100.00;101773.63;5228914;28;20398;-81
2021/12/14 00:25:31;;;;;;;7.50;4.65;;;;;;;8.22;100.00;101770.88;5231712;28;20119;-82
2021/12/14 00:28:10;;;;;;;7.82;5.07;;;;;;;8.07;100.00;101772.69;5224171;28;20033;-82
2021/12/14 00:30:44;;;;;;;9.27;4.82;;;;;;;8.10;100.00;101762.25;5230096;28;20024;-82
2021/12/14 00:33:18;;;;;;;7.60;5.00;;;;;;;8.02;100.00;101769.28;5228478;28;20043;-83
2021/12/14 00:35:49;;;;;;;8.52;4.85;;;;;;;8.05;100.00;101771.84;5226493;28;20035;-77
2021/12/14 00:38:21;;;;;;;8.13;5.10;;;;;;;8.04;100.00;101776.19;5228414;28;20493;-79
2021/12/14 00:40:59;;;;;;;8.35;5.32;;;;;;;8.07;100.00;101770.94;5233040;28;20052;-80
2021/12/14 00:43:29;;;;;;;8.25;5.22;;;;;;;8.02;100.00;101764.91;5226856;28;20114;-79
2021/12/14 00:46:00;;;;;;;7.78;5.00;;;;;;;8.03;100.00;101758.81;5229226;28;20037;-81
2021/12/14 00:48:31;;;;;;;6.53;4.47;;;;;;;8.01;100.00;101757.97;5228665;28;20572;-77
2021/12/14 00:51:03;;;;;;;8.48;5.07;;;;;;;8.01;100.00;101763.19;5224459;28;20279;-76
2021/12/14 00:53:34;;;;;;;9.27;5.55;;;;;;;8.01;100.00;101763.19;5231946;28;20055;-81
2021/12/14 00:56:09;;;;;;;9.30;5.35;;;;;;;7.98;100.00;101765.81;5229024;28;20029;-77
2021/12/14 00:58:40;;;;;;;9.32;5.78;;;;;;;7.98;100.00;101773.63;5232644;28;20021;-76
2021/12/14 01:01:20;;;;;;;8.27;5.05;;;;;;;7.96;100.00;101775.38;5229181;28;20035;-80
2021/12/14 01:03:54;;;;;;;8.50;5.25;;;;;;;7.96;100.00;101769.28;5233795;28;20028;-80
2021/12/14 01:06:30;;;;;;;8.73;5.57;;;;;;;7.94;100.00;101771.91;5239804;28;20032;-80
2021/12/14 01:09:05;;;;;;;8.65;5.68;;;;;;;7.99;100.00;101775.34;5233607;28;20028;-80
2021/12/14 01:11:42;;;;;;;8.77;5.43;;;;;;;7.94;100.00;101776.25;5236350;28;20056;-79
2021/12/14 01:14:30;;;;;;;8.15;5.03;;;;;;;8.00;100.00;101766.66;5230763;28;20501;-77
2021/12/14 01:17:10;;;;;;;8.02;4.90;;;;;;;7.96;100.00;101766.69;5232082;28;20045;-78
2021/12/14 01:19:44;;;;;;;9.10;5.50;;;;;;;7.88;100.00;101769.34;5228582;28;20032;-80
2021/12/14 01:22:39;;;;;;;11.18;5.57;;;;;;;7.88;100.00;101776.28;5237308;28;20569;-79
2021/12/14 01:25:24;;;;;;;8.65;5.20;;;;;;;7.88;100.00;101766.72;5234622;28;20119;-78
2021/12/14 01:28:04;;;;;;;9.02;5.50;;;;;;;7.83;100.00;101763.28;5236334;28;20025;-81
2021/12/14 01:30:52;;;;;;;9.20;5.43;;;;;;;7.82;100.00;101760.69;5232116;28;20736;-80
2021/12/14 01:33:24;;;;;;;9.80;5.32;;;;;;;7.87;100.00;101767.59;5229423;28;20029;-77
2021/12/14 01:35:56;;;;;;;9.25;5.63;;;;;;;7.84;100.00;101766.78;5236331;28;20111;-80
2021/12/14 01:41:05;;;;;;;9.43;5.78;;;;;;;7.86;100.00;101765.88;5236248;28;20470;-79
2021/12/14 01:43:44;;;;;;;9.80;5.85;;;;;;;7.84;100.00;101764.19;5232797;28;20265;-81
2021/12/14 01:46:21;;;;;;;9.73;5.72;;;;;;;7.81;100.00;101770.25;5232846;28;20532;-83
2021/12/14 01:48:52;;;;;;;11.20;5.75;;;;;;;7.88;100.00;101771.94;5232486;28;20028;-77
2021/12/14 01:51:24;;;;;;;12.85;6.15;;;;;;;7.84;100.00;101770.22;5235977;28;20028;-80
2021/12/14 01:53:55;;;;;;;9.98;5.75;;;;;;;7.88;100.00;101761.53;5231997;28;20086;-80
2021/12/14 01:56:28;;;;;;;10.93;6.30;;;;;;;7.87;100.00;101765.00;5234740;28;20024;-80
2021/12/14 01:59:08;;;;;;;10.13;6.40;;;;;;;7.87;100.00;101767.59;5235417;28;20389;-79
2021/12/14 02:01:55;;;;;;;11.10;6.68;;;;;;;7.86;100.00;101771.09;5231630;28;20112;-78
2021/12/14 02:04:26;;;;;;;11.65;7.05;;;;;;;7.83;100.00;101778.03;5233207;28;20023;-77
2021/12/14 02:07:03;;;;;;;11.02;6.60;;;;;;;7.80;100.00;101778.06;5233006;28;20461;-78
2021/12/14 02:09:37;;;;;;;10.38;6.55;;;;;;;7.78;100.00;101782.41;5231182;28;20054;-80
2021/12/14 02:12:15;;;;;;;12.07;7.15;;;;;;;7.75;100.00;101770.28;5232785;28;20094;-80
2021/12/14 02:14:47;;;;;;;12.98;7.22;;;;;;;7.77;100.00;101773.75;5231073;28;20406;-82
2021/12/14 02:17:21;;;;;;;10.15;6.60;;;;;;;7.83;100.00;101773.72;5232600;28;20033;-78
2021/12/14 02:19:51;;;;;;;12.20;7.45;;;;;;;7.76;100.00;101752.94;5225756;28;20048;-78
2021/12/14 02:22:22;;;;;;;13.45;7.07;;;;;;;7.75;100.00;101759.00;5234467;28;20028;-78
2021/12/14 02:24:52;;;;;;;11.25;7.28;;;;;;;7.75;100.00;101753.81;5234775;28;20073;-79
2021/12/14 02:27:23;;;;;;;12.88;7.68;;;;;;;7.73;100.00;101747.75;5231780;28;20033;-76
2021/12/14 02:29:53;;;;;;;13.57;8.13;;;;;;;7.70;100.00;101738.19;5234667;28;20027;-82
2021/12/14 02:32:26;;;;;;;12.23;8.05;;;;;;;7.68;100.00;101732.16;5230712;28;20210;-80
2021/12/14 02:35:00;;;;;;;13.50;7.57;;;;;;;7.68;100.00;101726.94;5232086;28;20494;-78
2021/12/14 02:37:53;;;;;;;13.98;8.43;;;;;;;7.79;100.00;101724.28;5228416;28;20036;-79
2021/12/14 02:43:43;;;;;;;15.60;8.95;;;;;;;7.70;100.00;101714.78;5233459;28;20089;-79
2021/12/14 02:46:20;;;;;;;14.10;8.48;;;;;;;7.73;100.00;101696.56;5235829;28;20536;-76
2021/12/14 02:49:11;;;;;;;14.13;8.60;;;;;;;7.71;100.00;101697.47;5232584;28;20028;-79
2021/12/14 02:51:46;;;;;;;15.32;9.02;;;;;;;7.76;100.00;101708.69;5224097;28;20422;-78
2021/12/14 02:54:20;;;;;;;13.30;8.32;;;;;;;7.86;100.00;101700.81;5230510;28;20383;-77
2021/12/14 02:56:55;;;;;;;14.20;8.85;;;;;;;7.78;100.00;101694.81;5237101;28;20263;-76
2021/12/14 02:59:29;;;;;;;19.45;9.38;;;;;;;7.76;100.00;101688.75;5234562;28;20024;-79
2021/12/14 03:02:06;;;;;;;14.52;8.48;;;;;;;7.79;100.00;101682.66;5230461;28;20036;-78
2021/12/14 03:04:44;;;;;;;13.20;8.38;;;;;;;7.84;100.00;101670.50;5231502;28;20021;-81
2021/12/14 03:07:16;;;;;;;16.25;8.30;;;;;;;7.77;100.00;101669.66;5225065;28;20044;-81
2021/12/14 03:10:07;;;;;;;13.55;7.80;;;;;;;7.72;100.00;101671.41;5231550;28;20029;-81
2021/12/14 03:12:42;;;;;;;13.00;8.00;;;;;;;7.70;100.00;101667.97;5231449;28;20293;-81
2021/12/14 03:15:16;;;;;;;14.40;8.60;;;;;;;7.76;100.00;101660.13;5231840;28;20028;-80
2021/12/14 03:17:50;;;;;;;11.90;7.07;;;;;;;7.77;100.00;101646.25;5234876;28;20559;-76
2021/12/14 03:20:23;;;;;;;14.48;8.52;;;;;;;7.71;100.00;101654.06;5228969;28;20060;-79
2021/12/14 03:23:05;;;;;;;15.30;8.07;;;;;;;7.66;100.00;101652.41;5233610;28;20036;-77
2021/12/14 03:25:38;;;;;;;14.10;7.88;;;;;;;7.65;100.00;101643.72;5231563;28;20051;-80
2021/12/14 03:28:12;;;;;;;13.18;7.82;;;;;;;7.65;100.00;101635.91;5233538;28;20515;-77
2021/12/14 03:30:51;;;;;;;12.32;7.15;;;;;;;7.74;100.00;101630.63;5234001;28;20074;-80
2021/12/14 03:33:26;;;;;;;13.75;7.40;;;;;;;7.74;100.00;101629.78;5232159;28;20028;-80
2021/12/14 03:36:04;;;;;;;15.38;7.43;;;;;;;7.82;100.00;101631.44;5231555;28;20025;-80
2021/12/14 03:38:48;;;;;;;14.07;7.65;;;;;;;7.81;100.00;101624.53;5229294;28;20091;-80
2021/12/14 03:41:23;;;;;;;10.82;6.55;;;;;;;7.71;100.00;101620.25;5230804;28;20067;-82
2021/12/14 03:44:10;;;;;;;11.63;6.65;;;;;;;7.66;100.00;101614.22;5233922;28;20019;-76
2021/12/14 03:46:55;;;;;;;11.70;6.70;;;;;;;7.72;100.00;101621.97;5230775;28;20569;-82
2021/12/14 03:49:32;;;;;;;12.23;6.75;;;;;;;7.79;100.00;101620.19;5238162;28;20404;-78
2021/12/14 03:52:06;;;;;;;10.60;6.53;;;;;;;7.67;100.00;101613.34;5229390;28;20029;-77
2021/12/14 03:54:39;;;;;;;10.30;6.05;;;;;;;7.66;100.00;101618.59;5232700;28;20050;-78
2021/12/14 03:57:10;;;;;;;11.30;6.40;;;;;;;7.67;100.00;101623.75;5228966;28;20056;-77
2021/12/14 03:59:41;;;;;;;10.85;6.25;;;;;;;7.64;100.00;101615.09;5231222;28;20032;-83
2021/12/14 04:02:16;;;;;;;11.30;6.00;;;;;;;7.62;100.00;101633.34;5231887;28;20655;-82
2021/12/14 04:04:57;;;;;;;10.67;5.70;;;;;;;7.63;100.00;101640.25;5235620;28;20054;-79
2021/12/14 04:07:28;;;;;;;9.95;6.25;;;;;;;7.61;100.00;101642.03;5226531;28;20021;-81
2021/12/14 04:09:59;;;;;;;11.13;6.20;;;;;;;7.56;100.00;101635.97;5229637;28;20028;-83
2021/12/14 04:12:29;;;;;;;9.48;6.18;;;;;;;7.59;100.00;101640.28;5233151;28;20090;-80
2021/12/14 04:15:00;;;;;;;10.75;6.10;;;;;;;7.55;100.00;101641.19;5229636;28;20617;-77
2021/12/14 04:17:30;;;;;;;11.73;5.95;;;;;;;7.62;100.00;101648.94;5231220;28;20086;-77
2021/12/14 04:20:00;;;;;;;10.30;5.97;;;;;;;7.56;100.00;101651.56;5221083;28;20021;-80
2021/12/14 04:22:33;;;;;;;10.40;6.45;;;;;;;7.54;100.00;101661.13;5232265;28;20033;-79
2021/12/14 04:25:07;;;;;;;10.18;6.03;;;;;;;7.52;100.00;101657.66;5234454;28;20020;-82
2021/12/14 04:27:38;;;;;;;10.32;5.97;;;;;;;7.59;100.00;101674.09;5232151;28;20180;-77
2021/12/14 04:30:11;;;;;;;11.23;5.82;;;;;;;7.55;100.00;101675.00;5229520;28;20047;-79
2021/12/14 04:32:46;;;;;;;9.10;5.32;;;;;;;7.51;100.00;101676.75;5231389;28;20027;-81
2021/12/14 04:35:18;;;;;;;11.65;6.40;;;;;;;7.48;100.00;101676.78;5233029;28;20128;-76
2021/12/14 04:37:56;;;;;;;7.85;5.10;;;;;;;7.49;100.00;101675.06;5227571;28;20029;-78
2021/12/14 04:52:01;;;;;;;9.02;5.20;;;;;;;7.40;100.00;101675.97;5233059;28;20024;-81
2021/12/14 04:54:39;;;;;;;12.23;5.68;;;;;;;7.40;100.00;101685.50;5233598;28;20028;-77
2021/12/14 04:57:38;;;;;;;9.65;5.35;;;;;;;7.42;100.00;101671.63;5232733;28;20119;-76
2021/12/14 05:00:18;;;;;;;9.65;5.68;;;;;;;7.39;100.00;101669.00;5231664;28;20472;-78
2021/12/14 05:02:49;;;;;;;11.30;5.88;;;;;;;7.42;100.00;101663.81;5228987;28;20448;-83
2021/12/14 05:05:23;;;;;;;10.63;5.97;;;;;;;7.45;100.00;101656.00;5234607;28;20048;-80
2021/12/14 05:10:55;;;;;;;9.73;5.05;;;;;;;7.46;100.00;101651.63;5235818;28;20103;-80
2021/12/14 05:13:33;;;;;;;10.43;5.47;;;;;;;7.55;100.00;101649.00;5233134;28;20056;-76
2021/12/14 05:16:04;;;;;;;9.68;5.13;;;;;;;7.53;100.00;101646.38;5233140;28;20025;-82
2021/12/14 05:18:35;;;;;;;9.80;4.95;;;;;;;7.53;100.00;101641.19;5231297;28;20029;-78
2021/12/14 05:21:05;;;;;;;8.18;5.00;;;;;;;7.51;100.00;101640.34;5237035;28;20033;-80
2021/12/14 05:23:36;;;;;;;7.50;4.55;;;;;;;7.55;100.00;101649.00;5230980;28;20104;-78
2021/12/14 05:26:07;;;;;;;8.70;4.60;;;;;;;7.55;100.00;101649.84;5232531;28;20021;-76
2021/12/14 05:28:37;;;;;;;8.35;4.88;;;;;;;7.48;100.00;101645.56;5231094;28;20035;-81
2021/12/14 05:31:08;;;;;;;8.98;4.78;;;;;;;7.53;100.00;101642.94;5237055;28;20402;-79
2021/12/14 05:33:39;;;;;;;8.20;4.70;;;;;;;7.57;100.00;101642.91;5234767;28;20130;-78
2021/12/14 05:36:15;;;;;;;7.90;4.82;;;;;;;7.73;100.00;101634.09;5229782;28;20045;-80
2021/12/14 05:38:57;;;;;;;10.30;4.68;;;;;;;7.67;100.00;101636.75;5233987;28;20302;-77
2021/12/14 05:44:20;;;;;;;12.20;5.00;;;;;;;7.56;100.00;101638.56;5234190;28;20398;-79
2021/12/14 05:46:53;;;;;;;9.18;5.05;;;;;;;7.48;100.00;101639.47;5232818;28;20029;-78
2021/12/14 05:49:27;;;;;;;8.75;4.90;;;;;;;7.50;100.00;101632.56;5234920;28;20021;-80
2021/12/14 05:52:00;;;;;;;7.70;4.43;;;;;;;7.45;100.00;101635.19;5231812;28;20067;-84
2021/12/14 05:54:32;;;;;;;8.40;4.88;;;;;;;7.51;100.00;101640.34;5233245;28;20025;-76
2021/12/14 05:57:05;;;;;;;9.65;4.95;;;;;;;7.46;100.00;101636.91;5230570;28;20028;-76
2021/12/14 05:59:36;;;;;;;7.97;4.88;;;;;;;7.48;100.00;101634.28;5236833;28;20119;-81
2021/12/14 06:02:08;;;;;;;8.57;4.88;;;;;;;7.49;100.00;101626.47;5235040;28;20554;-79
2021/12/14 06:04:43;;;;;;;8.30;4.78;;;;;;;7.43;100.00;101633.44;5230016;28;20021;-80
2021/12/14 06:07:15;;;;;;;9.88;4.90;;;;;;;7.56;100.00;101622.09;5226576;28;20496;-77
2021/12/14 06:09:49;;;;;;;8.75;4.40;;;;;;;7.62;100.00;101628.13;5222536;28;20608;-78
2021/12/14 06:12:25;;;;;;;10.07;5.30;;;;;;;7.54;100.00;101624.72;5231186;28;20029;-79
2021/12/14 06:14:59;;;;;;;8.32;5.00;;;;;;;7.57;100.00;101622.09;5239394;28;20090;-79
2021/12/14 06:17:33;;;;;;;8.98;5.32;;;;;;;7.54;100.00;101621.25;5231063;28;20516;-78
2021/12/14 06:20:18;;;;;;;10.65;5.70;;;;;;;7.50;100.00;101615.19;5226309;28;20029;-78
2021/12/14 06:22:52;;;;;;;9.75;5.60;;;;;;;7.49;100.00;101618.69;5233722;28;20090;-78
2021/12/14 06:25:27;;;;;;;11.90;5.95;;;;;;;7.50;100.00;101617.81;5232052;28;20021;-78
2021/12/14 06:28:01;;;;;;;9.50;5.25;;;;;;;7.47;100.00;101617.81;5235181;28;20024;-78
2021/12/14 06:30:35;;;;;;;12.40;5.63;;;;;;;7.49;100.00;101616.06;5231157;28;20032;-77
2021/12/14 06:33:08;;;;;;;11.00;5.45;;;;;;;7.47;100.00;101611.75;5234121;28;20038;-78
2021/12/14 06:35:46;;;;;;;9.50;5.45;;;;;;;7.56;100.00;101617.75;5231883;28;20040;-79
2021/12/14 06:38:29;;;;;;;9.18;5.68;;;;;;;7.51;100.00;101619.53;5229550;28;20068;-78
2021/12/14 06:41:13;;;;;;;10.00;5.82;;;;;;;7.60;100.00;101618.59;5231733;28;20025;-78
2021/12/14 06:43:52;;;;;;;9.90;5.53;;;;;;;7.59;100.00;101609.06;5234386;28;20451;-78
2021/12/14 06:46:34;;;;;;;9.13;5.53;;;;;;;7.56;100.00;101612.53;5235850;28;20020;-78
2021/12/14 06:49:08;;;;;;;10.07;5.82;;;;;;;7.66;100.00;101614.22;5227922;28;20391;-78
2021/12/14 06:51:42;;;;;;;9.55;5.85;;;;;;;7.61;100.00;101612.53;5234773;28;20036;-78
2021/12/14 06:54:16;;;;;;;10.15;5.95;;;;;;;7.59;100.00;101612.56;5235771;28;20082;-79
2021/12/14 06:56:53;;;;;;;11.13;6.50;;;;;;;7.65;100.00;101607.28;5234136;28;20039;-79
2021/12/14 06:59:24;;;;;;;10.02;6.40;;;;;;;7.60;100.00;101623.81;5233570;28;20031;-79
2021/12/14 07:02:01;;;;;;;12.25;6.60;;;;;;;7.55;100.00;101625.59;5235840;28;20084;-78
2021/12/14 07:04:33;;;;;;;11.18;6.50;;;;;;;7.50;100.00;101623.00;5233036;28;20024;-81
2021/12/14 07:07:11;;;;;;;11.75;6.63;;;;;;;7.47;100.00;101632.56;5229144;28;20532;-81
2021/12/14 07:09:51;;;;;;;11.32;6.63;;;;;;;7.44;100.00;101638.66;5233497;28;20486;-81
2021/12/14 07:12:34;;;;;;;11.70;6.93;;;;;;;7.41;100.00;101641.28;5237407;28;20035;-81
2021/12/14 07:15:24;;;;;;;10.77;6.30;;;;;;;7.39;100.00;101645.59;5234187;28;20051;-81
2021/12/14 07:18:04;;;;;;;11.13;6.60;;;;;;;7.39;100.00;101639.56;5234880;28;20025;-81
2021/12/14 07:20:51;;;;;;;10.65;6.50;;;;;;;7.40;100.00;101641.28;5233281;28;20071;-81
2021/12/14 07:23:28;;;;;;;11.50;6.93;;;;;;;7.40;100.00;101642.16;5234905;28;20029;-81
2021/12/14 07:26:06;;;;;;;11.85;6.35;;;;;;;7.44;100.00;101628.25;5233434;28;20090;-81
2021/12/14 07:28:42;;;;;;;10.30;6.75;;;;;;;7.42;100.00;101632.59;5235020;28;20048;-81
2021/12/14 07:31:16;;;;;;;10.50;6.47;;;;;;;7.54;100.00;101635.09;5235974;28;20060;-81
2021/12/14 07:33:50;;;;;;;10.25;6.30;;;;;;;7.49;100.00;101649.88;5236752;28;20062;-81
2021/12/14 07:36:32;;;;;;;12.32;6.30;;;;;;;7.50;100.00;101655.97;5228968;28;20060;-81
2021/12/14 07:39:07;;;;;;;10.65;6.72;;;;;;;7.64;100.00;101668.00;5238201;28;20091;-81
2021/12/14 07:41:41;;;;;;;11.00;6.77;;;;;;;7.65;100.00;101664.53;5236195;28;20669;-81
2021/12/14 07:44:16;;;;;;;11.60;7.22;;;;;;;7.64;100.00;101674.94;5235873;28;20283;-81
2021/12/14 07:46:52;;;;;;;14.57;7.90;;;;;;;7.64;100.00;101662.81;5233401;28;20047;-81
2021/12/14 07:49:24;;;;;;;12.25;7.65;;;;;;;7.67;100.00;101672.34;5226570;28;20025;-81
2021/12/14 07:52:02;;;;;;;12.32;6.78;;;;;;;7.79;100.00;101683.53;5233916;28;20107;-81
2021/12/14 07:54:40;;;;;;;10.52;6.55;;;;;;;7.78;100.00;101686.13;5230086;28;20502;-81
2021/12/14 07:57:13;;;;;;;13.93;6.57;;;;;;;7.81;100.00;101686.09;5231978;28;20032;-81
2021/12/14 07:59:47;;;;;;;11.10;6.03;;;;;;;7.87;100.00;101694.72;5231455;28;20031;-81
2021/12/14 08:02:19;;;;;;;9.80;6.07;;;;;;;7.83;100.00;101692.16;5233792;28;20036;-81
2021/12/14 08:04:57;;;;;;;10.70;6.22;;;;;;;7.78;100.00;101691.31;5230243;28;20025;-81
2021/12/14 08:07:40;;;;;;;9.32;6.25;;;;;;;7.78;100.00;101683.53;5227436;28;20025;-78
2021/12/14 08:10:16;;;;;;;9.10;5.93;;;;;;;7.78;100.00;101684.41;5231532;28;20028;-78
2021/12/14 08:13:07;;;;;;;9.65;6.10;;;;;;;7.78;100.00;101687.00;5230019;28;20024;-78
2021/12/14 08:15:39;;;;;;;10.02;6.30;;;;;;;7.73;100.00;101688.75;5230033;28;20492;-78
2021/12/14 08:18:12;;;;;;;10.10;6.55;;;;;;;7.71;100.00;101695.69;5232412;28;20680;-78
2021/12/14 08:20:53;;;;;;;11.35;6.50;;;;;;;7.72;100.00;101701.78;5231580;28;20031;-78
2021/12/14 08:23:49;;;;;;;9.23;5.68;;;;;;;7.69;100.00;101696.59;5230244;28;20402;-78
2021/12/14 08:26:33;;;;;;;10.25;5.95;;;;;;;7.71;100.00;101700.06;5229689;28;20037;-78
2021/12/14 08:29:08;;;;;;;10.40;6.45;;;;;;;7.88;100.00;101711.22;5230324;28;20063;-78
2021/12/14 08:31:43;;;;;;;10.27;6.28;;;;;;;7.81;100.00;101713.00;5232448;28;20028;-78
2021/12/14 08:34:21;;;;;;;9.43;5.80;;;;;;;7.84;100.00;101707.78;5230799;28;20078;-78
2021/12/14 08:37:02;;;;;;;10.30;6.00;;;;;;;7.85;100.00;101709.50;5224690;28;20395;-78
2021/12/14 08:39:40;;;;;;;9.27;5.82;;;;;;;7.87;100.00;101707.75;5230070;28;20029;-78
2021/12/14 08:42:26;;;;;;;8.88;5.57;;;;;;;7.87;100.00;101707.75;5231146;28;20048;-78
2021/12/14 08:44:59;;;;;;;8.90;5.63;;;;;;;7.89;100.00;101706.00;5232815;28;20020;-78
2021/12/14 08:47:39;;;;;;;9.20;5.57;;;;;;;7.90;100.00;101706.88;5225784;28;20096;-78
2021/12/14 08:50:12;;;;;;;11.25;6.25;;;;;;;7.94;100.00;101709.44;5226728;28;20563;-78
2021/12/14 08:52:42;;;;;;;10.85;5.65;;;;;;;8.09;100.00;101703.25;5231081;28;20028;-78
2021/12/14 08:55:16;;;;;;;8.35;5.75;;;;;;;8.02;100.00;101706.78;5231232;28;20039;-78
2021/12/14 08:57:47;;;;;;;10.18;5.57;;;;;;;7.97;100.00;101708.53;5231278;28;20025;-78
2021/12/14 09:00:22;;;;;;;11.13;5.95;;;;;;;7.99;100.00;101712.88;5229258;28;20032;-78
2021/12/14 09:02:58;;;;;;;;;;;;;;;8.02;100.00;101710.25;5229963;28;20556;-78
2021/12/14 09:05:36;;;;;;;10.63;5.68;;;;;;;8.07;100.00;101698.03;5231954;28;19941;-78
2021/12/14 09:08:07;;;;;;;10.57;6.03;;;;;;;8.09;100.00;101703.25;5225267;28;20426;-78
2021/12/14 09:10:39;;;;;;;10.50;5.88;;;;;;;8.12;100.00;101714.53;5229324;28;20053;-78
2021/12/14 09:13:12;;;;;;;9.82;5.75;;;;;;;8.13;100.00;101704.97;5232506;28;20028;-79
2021/12/14 09:15:49;;;;;;;9.18;5.55;;;;;;;8.18;100.00;101709.28;5229054;28;20112;-78
2021/12/14 09:18:21;;;;;;;9.23;5.65;;;;;;;8.30;100.00;101713.53;5229184;28;20063;-78
2021/12/14 09:21:01;;;;;;;8.90;5.43;;;;;;;8.36;100.00;101703.09;5232625;28;20080;-78
2021/12/14 09:23:38;;;;;;;10.00;5.93;;;;;;;8.31;100.00;101699.63;5229266;28;20679;-78
2021/12/14 09:26:15;;;;;;;11.82;6.03;;;;;;;8.31;100.00;101703.13;5234436;28;20115;-79
2021/12/14 09:28:47;;;;;;;11.52;6.20;;;;;;;8.35;100.00;101690.94;5234954;28;20028;-78
2021/12/14 09:31:25;;;;;;;10.45;6.10;;;;;;;8.37;100.00;101692.63;5233432;28;20029;-78
2021/12/14 09:33:58;;;;;;;12.05;6.55;;;;;;;8.29;100.00;101697.06;5236946;28;20458;-78
2021/12/14 09:36:29;;;;;;;12.45;6.50;;;;;;;8.20;100.00;101694.50;5233896;28;20025;-78
2021/12/14 09:39:10;;;;;;;10.82;6.00;;;;;;;8.30;100.00;101692.69;5228671;28;20387;-78
2021/12/14 09:41:43;;;;;;;8.45;5.82;;;;;;;8.43;100.00;101700.41;5234072;28;20441;-78
2021/12/14 09:44:16;;;;;;;7.60;5.13;;;;;;;8.42;100.00;101693.44;5233475;28;20107;-78
2021/12/14 09:46:48;;;;;;;8.57;5.70;;;;;;;8.34;100.00;101695.28;5234517;28;20021;-78
2021/12/14 09:49:18;;;;;;;11.75;5.63;;;;;;;8.45;100.00;101693.44;5232484;28;20036;-78
2021/12/14 09:51:56;;;;;;;9.65;5.70;;;;;;;8.37;100.00;101692.63;5233272;28;20078;-78
2021/12/14 09:54:28;;;;;;;10.60;6.32;;;;;;;8.37;100.00;101691.78;5236039;28;20090;-78
2021/12/14 09:57:13;;;;;;;11.68;6.57;;;;;;;8.38;100.00;101688.31;5231608;28;20628;-78
2021/12/14 09:59:44;;;;;;;10.98;6.28;;;;;;;8.43;100.00;101694.31;5233040;28;20036;-78
2021/12/14 10:02:21;;;;;;;9.73;6.10;;;;;;;8.47;100.00;101698.63;5234554;28;20519;-78
2021/12/14 10:05:00;;;;;;;8.85;5.82;;;;;;;8.61;100.00;101695.03;5233624;28;20032;-78
2021/12/14 10:07:31;;;;;;;10.35;6.63;;;;;;;8.54;100.00;101701.16;5231213;28;20026;-78
2021/12/14 10:10:07;;;;;;;10.77;6.35;;;;;;;8.63;100.00;101693.28;5232436;28;20028;-78
2021/12/14 10:12:50;;;;;;;10.60;6.85;;;;;;;8.49;100.00;101679.50;5233638;28;20031;-78
2021/12/14 10:15:35;;;;;;;10.88;6.72;;;;;;;8.67;100.00;101674.13;5231594;28;20162;-78
2021/12/14 10:18:15;;;;;;;11.20;6.93;;;;;;;8.59;100.00;101673.31;5231873;28;20021;-78
2021/12/14 10:20:53;;;;;;;11.60;7.05;;;;;;;8.61;100.00;101670.69;5231001;28;20029;-78
2021/12/14 10:23:25;;;;;;;12.18;7.30;;;;;;;8.67;100.00;101663.69;5233279;28;20028;-78
2021/12/14 10:25:56;;;;;;;12.73;7.43;;;;;;;8.77;100.00;101664.44;5227944;28;20382;-78
2021/12/14 10:28:29;;;;;;;10.98;6.78;;;;;;;8.82;100.00;101668.75;5235903;28;20608;-78
2021/12/14 10:31:05;;;;;;;13.50;7.45;;;;;;;8.81;100.00;101666.13;5232171;28;20049;-78
2021/12/14 10:33:42;;;;;;;11.85;7.25;;;;;;;8.85;100.00;101668.69;5233340;28;20024;-79
2021/12/14 10:36:27;;;;;;;14.18;7.95;;;;;;;8.81;100.00;101671.34;5230681;28;20036;-78
2021/12/14 10:39:08;;;;;;;11.05;7.47;;;;;;;8.75;100.00;101672.28;5234177;28;20424;-78
2021/12/14 10:44:39;;;;;;;11.20;7.35;;;;;;;8.88;100.00;101679.09;5230434;28;20119;-78
2021/12/14 10:47:12;;;;;;;12.50;7.97;;;;;;;8.85;100.00;101680.84;5232294;28;20020;-78
2021/12/14 10:49:43;;;;;;;11.70;7.53;;;;;;;9.02;100.00;101673.72;5223738;28;20625;-78
2021/12/14 10:52:17;;;;;;;12.27;8.07;;;;;;;8.96;100.00;101679.00;5234273;28;20114;-78
2021/12/14 10:54:52;;;;;;;13.07;8.77;;;;;;;8.94;100.00;101679.03;5233150;28;20107;-78
2021/12/14 10:57:27;;;;;;;11.45;8.00;;;;;;;9.05;100.00;101671.09;5230896;28;20667;-78
2021/12/14 10:59:58;;;;;;;14.98;9.02;;;;;;;9.13;100.00;101675.34;5230657;28;20067;-79
2021/12/14 11:02:29;;;;;;;13.57;8.82;;;;;;;9.18;100.00;101671.75;5233984;28;20099;-79
2021/12/14 11:04:59;;;;;;;14.52;8.85;;;;;;;9.30;100.00;101665.56;5233501;28;20036;-78
2021/12/14 11:07:38;;;;;;;13.13;9.00;;;;;;;9.41;100.00;101661.91;5228024;28;20024;-78
2021/12/14 11:10:24;;;;;;;13.00;8.90;;;;;;;9.53;100.00;101661.75;5232266;28;20427;-79
2021/12/14 11:13:00;;;;;;;13.75;9.65;;;;;;;9.53;100.00;101679.13;5233594;28;20031;-78
2021/12/14 11:15:39;;;;;;;18.15;10.60;;;;;;;9.66;100.00;101670.25;5230449;28;20491;-78
2021/12/14 11:18:15;;;;;;;16.52;9.70;;;;;;;9.50;100.00;101666.16;5235680;28;20029;-78
2021/12/14 11:21:08;;;;;;;15.20;9.68;;;;;;;9.48;100.00;101668.75;5235818;28;20030;-78
2021/12/14 11:23:44;;;;;;;17.55;10.40;;;;;;;9.52;100.00;101661.75;5236462;28;20092;-81
2021/12/14 11:26:29;;;;;;;14.80;10.05;;;;;;;9.51;100.00;101666.09;5233609;28;20031;-81
2021/12/14 11:29:10;;;;;;;15.45;10.23;;;;;;;9.67;100.00;101665.00;5233431;28;20036;-81
2021/12/14 11:31:48;;;;;;;17.23;11.48;;;;;;;9.65;100.00;101660.72;5231893;28;20024;-79
2021/12/14 11:34:36;;;;;;;20.10;10.30;;;;;;;9.61;100.00;101662.50;5229725;28;20024;-79
2021/12/14 11:37:14;;;;;;;18.15;10.90;;;;;;;9.53;100.00;101653.94;5232986;28;20809;-79
2021/12/14 11:39:48;;;;;;;13.88;9.57;;;;;;;9.53;100.00;101646.09;5236284;28;20082;-80
2021/12/14 11:42:19;;;;;;;16.48;10.25;;;;;;;9.58;100.00;101653.84;5243284;28;20481;-77
2021/12/14 11:44:56;;;;;;;14.07;9.27;;;;;;;9.68;100.00;101650.22;5243260;28;20035;-77
2021/12/14 11:47:46;;;;;;;16.67;10.20;;;;;;;9.75;100.00;101646.63;5242455;28;20369;-84
2021/12/14 11:50:34;;;;;;;17.77;10.70;;;;;;;9.61;100.00;101659.00;5229975;28;20104;-79
2021/12/14 11:53:09;;;;;;;19.35;11.23;;;;;;;9.53;100.00;101666.09;5222067;28;20036;-77
2021/12/14 11:55:52;;;;;;;;;;;;;;;9.63;100.00;101667.69;5222711;28;20108;-80
2021/12/14 11:58:36;;;;;;;19.13;11.35;;;;;;;9.52;100.00;101664.38;5222073;28;19934;-80
2021/12/14 12:01:36;;;;;;;18.10;11.45;;;;;;;9.53;100.00;101658.25;5230161;28;20055;-80
2021/12/14 12:04:15;;;;;;;17.35;10.50;;;;;;;9.51;100.00;101667.88;5243123;28;20039;-82
2021/12/14 12:09:32;;;;;;;16.20;10.88;;;;;;;9.54;100.00;101657.38;5230859;28;20482;-79
2021/12/14 12:12:05;;;;;;;16.63;11.13;;;;;;;9.42;100.00;101661.03;5222382;28;20513;-82
2021/12/14 12:14:54;;;;;;;15.52;10.27;;;;;;;9.46;100.00;101659.25;5221843;28;20135;-79
2021/12/14 12:17:44;;;;;;;16.98;11.65;;;;;;;9.44;100.00;101655.75;5235579;22;20127;-78
2021/12/14 12:20:38;;;;;;;14.80;9.75;;;;;;;9.46;100.00;101659.25;5206501;28;20032;-77
2021/12/14 12:23:34;;;;;;;18.58;11.40;;;;;;;9.68;100.00;101661.50;5212969;28;20029;-78
2021/12/14 12:26:09;;;;;;;19.02;11.75;;;;;;;9.67;100.00;101674.59;5209680;28;20037;-78
2021/12/14 12:28:43;;;;;;;16.70;11.30;;;;;;;9.64;100.00;101659.00;5217784;28;20052;-78
2021/12/14 12:31:19;;;;;;;17.35;11.30;;;;;;;9.47;100.00;101660.97;5214952;28;20493;-78
2021/12/14 12:33:56;;;;;;;23.27;12.90;;;;;;;9.68;100.00;101663.28;5216114;28;20021;-78
2021/12/14 12:36:34;;;;;;;18.30;10.68;;;;;;;9.56;100.00;101658.22;5209516;28;20328;-77